Terminal Aerodrome Forecast
Issued by NWS

Home | Current Version | Previous Version | Text Only | Print | Product List | Glossary On
Versions: 1 2 3 4 5 6 7 8 9 10 11 12 13 14 15
000
FTUS43 KUNR 281120
TAFGCC
TAF
KGCC 281120Z 2812/2912 28008KT P6SM SCT100
     FM281500 32014KT P6SM SCT100
     FM281900 32020G30KT P6SM VCSH BKN100
     FM290200 31008KT P6SM SCT200=

USA.gov is the U.S. government's official web portal to all federal, state and local government web resources and services.